sensor_id;sensor_type;location;lat;lon;timestamp;temperature;humidity
26272;DHT22;13997;48.902;12.472;2023-12-20T00:01:16;76.80;2227.20
26272;DHT22;13997;48.902;12.472;2023-12-20T00:03:41;76.80;2227.20
26272;DHT22;13997;48.902;12.472;2023-12-20T00:06:07;76.80;2227.20
26272;DHT22;13997;48.902;12.472;2023-12-20T00:08:32;76.90;2227.20
26272;DHT22;13997;48.902;12.472;2023-12-20T00:10:58;76.90;2227.20
26272;DHT22;13997;48.902;12.472;2023-12-20T00:13:23;76.90;2227.20
26272;DHT22;13997;48.902;12.472;2023-12-20T00:15:48;76.90;2227.20
26272;DHT22;13997;48.902;12.472;2023-12-20T00:18:14;76.90;2227.20
26272;DHT22;13997;48.902;12.472;2023-12-20T00:20:40;76.90;2227.20
26272;DHT22;13997;48.902;12.472;2023-12-20T00:23:05;76.90;2227.20
26272;DHT22;13997;48.902;12.472;2023-12-20T00:25:30;76.90;2227.20
26272;DHT22;13997;48.902;12.472;2023-12-20T00:27:56;77.00;2227.20
26272;DHT22;13997;48.902;12.472;2023-12-20T00:30:21;77.00;2227.20
26272;DHT22;13997;48.902;12.472;2023-12-20T00:32:47;77.00;2227.20
26272;DHT22;13997;48.902;12.472;2023-12-20T00:35:13;77.00;2227.20
26272;DHT22;13997;48.902;12.472;2023-12-20T00:37:39;77.00;2227.20
26272;DHT22;13997;48.902;12.472;2023-12-20T00:40:04;77.00;2227.20
26272;DHT22;13997;48.902;12.472;2023-12-20T00:42:30;77.00;2227.20
26272;DHT22;13997;48.902;12.472;2023-12-20T00:44:55;77.00;2227.20
26272;DHT22;13997;48.902;12.472;2023-12-20T00:47:21;77.00;2227.20
26272;DHT22;13997;48.902;12.472;2023-12-20T00:49:47;77.00;2227.20
26272;DHT22;13997;48.902;12.472;2023-12-20T00:52:13;77.00;2227.20
26272;DHT22;13997;48.902;12.472;2023-12-20T00:54:38;77.00;2227.20
26272;DHT22;13997;48.902;12.472;2023-12-20T00:57:04;77.00;2227.20
26272;DHT22;13997;48.902;12.472;2023-12-20T00:59:29;77.00;2227.20
26272;DHT22;13997;48.902;12.472;2023-12-20T01:01:55;77.00;2227.20
26272;DHT22;13997;48.902;12.472;2023-12-20T01:04:20;77.00;2227.20
26272;DHT22;13997;48.902;12.472;2023-12-20T01:06:46;77.10;2227.20
26272;DHT22;13997;48.902;12.472;2023-12-20T01:09:12;77.00;2227.20
26272;DHT22;13997;48.902;12.472;2023-12-20T01:11:37;77.10;2227.20
26272;DHT22;13997;48.902;12.472;2023-12-20T01:14:02;77.10;2227.20
26272;DHT22;13997;48.902;12.472;2023-12-20T01:16:28;77.10;2227.20
26272;DHT22;13997;48.902;12.472;2023-12-20T01:18:53;77.10;2227.20
26272;DHT22;13997;48.902;12.472;2023-12-20T01:21:19;77.10;2227.20
26272;DHT22;13997;48.902;12.472;2023-12-20T01:23:44;77.10;2227.20
26272;DHT22;13997;48.902;12.472;2023-12-20T01:26:10;77.10;2227.20
26272;DHT22;13997;48.902;12.472;2023-12-20T01:28:35;77.10;2227.20
26272;DHT22;13997;48.902;12.472;2023-12-20T01:31:01;77.10;2227.20
26272;DHT22;13997;48.902;12.472;2023-12-20T01:33:26;77.20;2227.20
26272;DHT22;13997;48.902;12.472;2023-12-20T01:35:52;77.10;2227.20
26272;DHT22;13997;48.902;12.472;2023-12-20T01:38:17;77.20;2227.20
26272;DHT22;13997;48.902;12.472;2023-12-20T01:40:45;77.20;2227.20
26272;DHT22;13997;48.902;12.472;2023-12-20T01:43:11;77.20;2227.20
26272;DHT22;13997;48.902;12.472;2023-12-20T01:45:39;77.20;2227.20
26272;DHT22;13997;48.902;12.472;2023-12-20T01:48:05;77.30;2227.20
26272;DHT22;13997;48.902;12.472;2023-12-20T01:50:31;77.30;2227.20
26272;DHT22;13997;48.902;12.472;2023-12-20T01:53:00;77.30;2227.20
26272;DHT22;13997;48.902;12.472;2023-12-20T01:55:27;77.30;2227.20
26272;DHT22;13997;48.902;12.472;2023-12-20T01:57:53;77.30;2227.20
26272;DHT22;13997;48.902;12.472;2023-12-20T02:00:18;77.30;2227.20
26272;DHT22;13997;48.902;12.472;2023-12-20T02:02:48;77.20;2227.20
26272;DHT22;13997;48.902;12.472;2023-12-20T02:05:15;77.20;2227.20
26272;DHT22;13997;48.902;12.472;2023-12-20T02:07:41;77.20;2227.20
26272;DHT22;13997;48.902;12.472;2023-12-20T02:10:07;77.20;2227.20
26272;DHT22;13997;48.902;12.472;2023-12-20T02:12:33;77.20;2227.20
26272;DHT22;13997;48.902;12.472;2023-12-20T02:14:58;77.20;2227.20
26272;DHT22;13997;48.902;12.472;2023-12-20T02:17:24;77.20;2227.20
26272;DHT22;13997;48.902;12.472;2023-12-20T02:19:50;77.20;2227.20
26272;DHT22;13997;48.902;12.472;2023-12-20T02:22:15;77.20;2227.20
26272;DHT22;13997;48.902;12.472;2023-12-20T02:24:41;77.30;2227.20
26272;DHT22;13997;48.902;12.472;2023-12-20T02:27:07;77.30;2227.20
26272;DHT22;13997;48.902;12.472;2023-12-20T02:29:33;77.30;2227.20
26272;DHT22;13997;48.902;12.472;2023-12-20T02:31:59;77.30;2227.20
26272;DHT22;13997;48.902;12.472;2023-12-20T02:34:24;77.30;2227.20
26272;DHT22;13997;48.902;12.472;2023-12-20T02:36:50;77.20;2227.20
26272;DHT22;13997;48.902;12.472;2023-12-20T02:39:16;77.20;2227.20
26272;DHT22;13997;48.902;12.472;2023-12-20T02:41:41;77.20;2227.20
26272;DHT22;13997;48.902;12.472;2023-12-20T02:44:07;77.20;2227.20
26272;DHT22;13997;48.902;12.472;2023-12-20T02:46:32;77.20;2227.20
26272;DHT22;13997;48.902;12.472;2023-12-20T02:48:58;77.20;2227.20
26272;DHT22;13997;48.902;12.472;2023-12-20T02:51:23;77.20;2227.20
26272;DHT22;13997;48.902;12.472;2023-12-20T02:53:48;77.20;2227.20
26272;DHT22;13997;48.902;12.472;2023-12-20T02:56:14;77.20;2227.20
26272;DHT22;13997;48.902;12.472;2023-12-20T02:58:39;77.20;2227.20
26272;DHT22;13997;48.902;12.472;2023-12-20T03:01:05;77.20;2227.20
26272;DHT22;13997;48.902;12.472;2023-12-20T03:03:31;77.20;2227.20
26272;DHT22;13997;48.902;12.472;2023-12-20T03:05:56;77.30;2227.20
26272;DHT22;13997;48.902;12.472;2023-12-20T03:08:22;77.30;2227.20
26272;DHT22;13997;48.902;12.472;2023-12-20T03:10:47;77.30;2227.20
26272;DHT22;13997;48.902;12.472;2023-12-20T03:13:13;77.30;2227.20
26272;DHT22;13997;48.902;12.472;2023-12-20T03:15:38;77.30;2227.20
26272;DHT22;13997;48.902;12.472;2023-12-20T03:18:04;77.30;2227.20
26272;DHT22;13997;48.902;12.472;2023-12-20T03:20:29;77.30;2227.20
26272;DHT22;13997;48.902;12.472;2023-12-20T03:22:58;77.30;2227.20
26272;DHT22;13997;48.902;12.472;2023-12-20T03:25:24;77.30;2227.20
26272;DHT22;13997;48.902;12.472;2023-12-20T03:27:49;77.30;2227.20
26272;DHT22;13997;48.902;12.472;2023-12-20T03:30:14;77.30;2227.20
26272;DHT22;13997;48.902;12.472;2023-12-20T03:32:40;77.30;2227.20
26272;DHT22;13997;48.902;12.472;2023-12-20T03:35:05;77.20;2227.20
26272;DHT22;13997;48.902;12.472;2023-12-20T03:37:31;77.30;2227.20
26272;DHT22;13997;48.902;12.472;2023-12-20T03:39:56;77.30;2227.20
26272;DHT22;13997;48.902;12.472;2023-12-20T03:42:22;77.30;2227.20
26272;DHT22;13997;48.902;12.472;2023-12-20T03:44:47;77.30;2227.20
26272;DHT22;13997;48.902;12.472;2023-12-20T03:47:13;77.30;2227.20
26272;DHT22;13997;48.902;12.472;2023-12-20T03:49:38;77.20;2227.20
26272;DHT22;13997;48.902;12.472;2023-12-20T03:52:04;77.20;2227.20
26272;DHT22;13997;48.902;12.472;2023-12-20T03:54:30;77.20;2227.20
26272;DHT22;13997;48.902;12.472;2023-12-20T03:56:55;77.20;2227.20
26272;DHT22;13997;48.902;12.472;2023-12-20T03:59:20;77.10;2227.20
26272;DHT22;13997;48.902;12.472;2023-12-20T04:01:46;77.10;2227.20
26272;DHT22;13997;48.902;12.472;2023-12-20T04:04:12;77.20;2227.20
26272;DHT22;13997;48.902;12.472;2023-12-20T04:06:38;77.10;2227.20
26272;DHT22;13997;48.902;12.472;2023-12-20T04:09:03;77.20;2227.20
26272;DHT22;13997;48.902;12.472;2023-12-20T04:11:29;77.20;2227.20
26272;DHT22;13997;48.902;12.472;2023-12-20T04:13:54;77.20;2227.20
26272;DHT22;13997;48.902;12.472;2023-12-20T04:16:20;77.20;2227.20
26272;DHT22;13997;48.902;12.472;2023-12-20T04:18:45;77.10;2227.20
26272;DHT22;13997;48.902;12.472;2023-12-20T04:21:11;77.10;2227.20
26272;DHT22;13997;48.902;12.472;2023-12-20T04:23:36;77.10;2227.20
26272;DHT22;13997;48.902;12.472;2023-12-20T04:26:02;77.10;2227.20
26272;DHT22;13997;48.902;12.472;2023-12-20T04:28:27;77.10;2227.20
26272;DHT22;13997;48.902;12.472;2023-12-20T04:30:55;77.10;2227.20
26272;DHT22;13997;48.902;12.472;2023-12-20T04:33:21;77.10;2227.20
26272;DHT22;13997;48.902;12.472;2023-12-20T04:35:47;77.10;2227.20
26272;DHT22;13997;48.902;12.472;2023-12-20T04:38:12;77.10;2227.20
26272;DHT22;13997;48.902;12.472;2023-12-20T04:40:38;77.10;2227.20
26272;DHT22;13997;48.902;12.472;2023-12-20T04:43:05;77.10;2227.20
26272;DHT22;13997;48.902;12.472;2023-12-20T04:45:31;77.10;2227.20
26272;DHT22;13997;48.902;12.472;2023-12-20T04:47:56;77.10;2227.20
26272;DHT22;13997;48.902;12.472;2023-12-20T04:50:22;77.10;2227.20
26272;DHT22;13997;48.902;12.472;2023-12-20T04:52:47;77.20;2227.20
26272;DHT22;13997;48.902;12.472;2023-12-20T04:55:13;77.20;2227.20
26272;DHT22;13997;48.902;12.472;2023-12-20T04:57:39;77.20;2227.20
26272;DHT22;13997;48.902;12.472;2023-12-20T05:00:05;77.20;2227.20
26272;DHT22;13997;48.902;12.472;2023-12-20T05:02:30;77.20;2227.20
26272;DHT22;13997;48.902;12.472;2023-12-20T05:04:56;77.20;2227.20
26272;DHT22;13997;48.902;12.472;2023-12-20T05:07:21;77.20;2227.20
26272;DHT22;13997;48.902;12.472;2023-12-20T05:09:47;77.20;2227.20
26272;DHT22;13997;48.902;12.472;2023-12-20T05:12:12;77.20;2227.20
26272;DHT22;13997;48.902;12.472;2023-12-20T05:14:38;77.20;2227.20
26272;DHT22;13997;48.902;12.472;2023-12-20T05:17:03;77.20;2227.20
26272;DHT22;13997;48.902;12.472;2023-12-20T05:19:29;77.20;2227.20
26272;DHT22;13997;48.902;12.472;2023-12-20T05:21:54;77.20;2227.20
26272;DHT22;13997;48.902;12.472;2023-12-20T05:24:20;77.20;2227.20
26272;DHT22;13997;48.902;12.472;2023-12-20T05:26:45;77.20;2227.20
26272;DHT22;13997;48.902;12.472;2023-12-20T05:29:11;77.30;2227.20
26272;DHT22;13997;48.902;12.472;2023-12-20T05:31:37;77.20;2227.20
26272;DHT22;13997;48.902;12.472;2023-12-20T05:34:02;77.30;2227.20
26272;DHT22;13997;48.902;12.472;2023-12-20T05:36:27;77.40;2227.20
26272;DHT22;13997;48.902;12.472;2023-12-20T05:38:53;77.50;2227.20
26272;DHT22;13997;48.902;12.472;2023-12-20T05:41:19;77.60;2227.20
26272;DHT22;13997;48.902;12.472;2023-12-20T05:43:44;77.60;2227.20
26272;DHT22;13997;48.902;12.472;2023-12-20T05:46:10;77.60;2227.20
26272;DHT22;13997;48.902;12.472;2023-12-20T05:48:37;77.70;2227.20
26272;DHT22;13997;48.902;12.472;2023-12-20T05:51:02;77.70;2227.20
26272;DHT22;13997;48.902;12.472;2023-12-20T05:53:28;77.70;2227.20
26272;DHT22;13997;48.902;12.472;2023-12-20T05:55:53;77.70;2227.20
26272;DHT22;13997;48.902;12.472;2023-12-20T05:58:19;102.40;2227.20
26272;DHT22;13997;48.902;12.472;2023-12-20T06:00:44;102.40;2227.20
26272;DHT22;13997;48.902;12.472;2023-12-20T06:03:10;102.40;2227.20
26272;DHT22;13997;48.902;12.472;2023-12-20T06:05:35;102.40;2227.20
26272;DHT22;13997;48.902;12.472;2023-12-20T06:08:01;102.40;2227.20
26272;DHT22;13997;48.902;12.472;2023-12-20T06:10:28;102.40;2227.20
26272;DHT22;13997;48.902;12.472;2023-12-20T06:12:54;102.40;2227.20
26272;DHT22;13997;48.902;12.472;2023-12-20T06:15:19;102.40;2227.20
26272;DHT22;13997;48.902;12.472;2023-12-20T06:17:45;102.50;2227.20
26272;DHT22;13997;48.902;12.472;2023-12-20T06:20:12;102.50;2227.20
26272;DHT22;13997;48.902;12.472;2023-12-20T06:22:38;102.50;2227.20
26272;DHT22;13997;48.902;12.472;2023-12-20T06:25:04;102.50;2227.20
26272;DHT22;13997;48.902;12.472;2023-12-20T06:27:29;102.50;2227.20
26272;DHT22;13997;48.902;12.472;2023-12-20T06:29:55;102.50;2227.20
26272;DHT22;13997;48.902;12.472;2023-12-20T06:32:21;102.50;2227.20
26272;DHT22;13997;48.902;12.472;2023-12-20T06:34:48;102.60;2227.20
26272;DHT22;13997;48.902;12.472;2023-12-20T06:37:14;102.60;2227.20
26272;DHT22;13997;48.902;12.472;2023-12-20T06:39:40;102.60;2227.20
26272;DHT22;13997;48.902;12.472;2023-12-20T06:42:06;102.60;2227.20
26272;DHT22;13997;48.902;12.472;2023-12-20T06:44:31;102.60;2227.20
26272;DHT22;13997;48.902;12.472;2023-12-20T06:46:57;102.60;2227.20
26272;DHT22;13997;48.902;12.472;2023-12-20T06:49:22;102.60;2227.20
26272;DHT22;13997;48.902;12.472;2023-12-20T06:51:48;102.60;2227.20
26272;DHT22;13997;48.902;12.472;2023-12-20T06:54:13;102.70;2227.20
26272;DHT22;13997;48.902;12.472;2023-12-20T06:56:39;102.60;2227.20
26272;DHT22;13997;48.902;12.472;2023-12-20T06:59:04;102.70;2227.20
26272;DHT22;13997;48.902;12.472;2023-12-20T07:01:30;102.70;2227.20
26272;DHT22;13997;48.902;12.472;2023-12-20T07:03:55;102.70;2227.20
26272;DHT22;13997;48.902;12.472;2023-12-20T07:06:20;102.70;2227.20
26272;DHT22;13997;48.902;12.472;2023-12-20T07:08:46;102.70;2227.20
26272;DHT22;13997;48.902;12.472;2023-12-20T07:11:12;102.70;2227.20
26272;DHT22;13997;48.902;12.472;2023-12-20T07:13:37;102.80;2227.20
26272;DHT22;13997;48.902;12.472;2023-12-20T07:16:03;102.70;2227.20
26272;DHT22;13997;48.902;12.472;2023-12-20T07:18:28;102.80;2227.20
26272;DHT22;13997;48.902;12.472;2023-12-20T07:20:54;102.80;2227.20
26272;DHT22;13997;48.902;12.472;2023-12-20T07:23:20;102.80;2227.20
26272;DHT22;13997;48.902;12.472;2023-12-20T07:25:46;102.80;2227.20
26272;DHT22;13997;48.902;12.472;2023-12-20T07:28:12;102.80;2227.20
26272;DHT22;13997;48.902;12.472;2023-12-20T07:30:37;102.80;2227.20
26272;DHT22;13997;48.902;12.472;2023-12-20T07:33:03;102.90;2227.20
26272;DHT22;13997;48.902;12.472;2023-12-20T07:35:28;102.90;2227.20
26272;DHT22;13997;48.902;12.472;2023-12-20T07:37:54;102.90;2227.20
26272;DHT22;13997;48.902;12.472;2023-12-20T07:40:19;102.90;2227.20
26272;DHT22;13997;48.902;12.472;2023-12-20T07:42:45;102.90;2227.20
26272;DHT22;13997;48.902;12.472;2023-12-20T07:45:11;102.90;2227.20
26272;DHT22;13997;48.902;12.472;2023-12-20T07:47:37;102.90;2227.20
26272;DHT22;13997;48.902;12.472;2023-12-20T07:50:03;102.90;2227.20
26272;DHT22;13997;48.902;12.472;2023-12-20T07:52:31;102.90;2227.20
26272;DHT22;13997;48.902;12.472;2023-12-20T07:54:56;102.90;2227.20
26272;DHT22;13997;48.902;12.472;2023-12-20T07:57:23;102.90;2227.20
26272;DHT22;13997;48.902;12.472;2023-12-20T07:59:48;102.90;2227.20
26272;DHT22;13997;48.902;12.472;2023-12-20T08:02:13;103.00;2227.20
26272;DHT22;13997;48.902;12.472;2023-12-20T08:04:39;103.00;2227.20
26272;DHT22;13997;48.902;12.472;2023-12-20T08:07:06;103.00;2227.20
26272;DHT22;13997;48.902;12.472;2023-12-20T08:09:32;103.00;2227.20
26272;DHT22;13997;48.902;12.472;2023-12-20T08:11:59;103.00;2227.20
26272;DHT22;13997;48.902;12.472;2023-12-20T08:14:25;103.00;2227.20
26272;DHT22;13997;48.902;12.472;2023-12-20T08:16:50;103.00;2227.20
26272;DHT22;13997;48.902;12.472;2023-12-20T08:19:16;103.00;2227.20
26272;DHT22;13997;48.902;12.472;2023-12-20T08:21:42;103.00;2227.20
26272;DHT22;13997;48.902;12.472;2023-12-20T08:24:07;103.00;2227.20
26272;DHT22;13997;48.902;12.472;2023-12-20T08:26:33;103.00;2227.20
26272;DHT22;13997;48.902;12.472;2023-12-20T08:28:58;103.00;2227.20
26272;DHT22;13997;48.902;12.472;2023-12-20T08:31:24;103.00;2227.20
26272;DHT22;13997;48.902;12.472;2023-12-20T08:33:50;103.00;2227.20
26272;DHT22;13997;48.902;12.472;2023-12-20T08:36:16;103.00;2227.20
26272;DHT22;13997;48.902;12.472;2023-12-20T08:38:43;103.00;2227.20
26272;DHT22;13997;48.902;12.472;2023-12-20T08:41:08;103.00;2227.20
26272;DHT22;13997;48.902;12.472;2023-12-20T08:43:34;103.00;2227.20
26272;DHT22;13997;48.902;12.472;2023-12-20T08:46:00;103.00;2227.20
26272;DHT22;13997;48.902;12.472;2023-12-20T08:48:26;103.00;2227.20
26272;DHT22;13997;48.902;12.472;2023-12-20T08:50:51;103.10;2227.20
26272;DHT22;13997;48.902;12.472;2023-12-20T08:53:18;103.10;2227.20
26272;DHT22;13997;48.902;12.472;2023-12-20T08:55:43;103.10;2227.20
26272;DHT22;13997;48.902;12.472;2023-12-20T08:58:09;103.10;2227.20
26272;DHT22;13997;48.902;12.472;2023-12-20T09:00:34;103.10;2227.20
26272;DHT22;13997;48.902;12.472;2023-12-20T09:03:01;103.20;2227.20
26272;DHT22;13997;48.902;12.472;2023-12-20T09:05:26;103.20;2227.20
26272;DHT22;13997;48.902;12.472;2023-12-20T09:07:52;103.10;2227.20
26272;DHT22;13997;48.902;12.472;2023-12-20T09:10:17;103.20;2227.20
26272;DHT22;13997;48.902;12.472;2023-12-20T09:12:56;103.20;2227.20
26272;DHT22;13997;48.902;12.472;2023-12-20T09:15:25;103.20;2227.20
26272;DHT22;13997;48.902;12.472;2023-12-20T09:17:51;103.20;2227.20
26272;DHT22;13997;48.902;12.472;2023-12-20T09:20:16;103.20;2227.20
26272;DHT22;13997;48.902;12.472;2023-12-20T09:22:42;103.30;2227.20
26272;DHT22;13997;48.902;12.472;2023-12-20T09:25:09;103.30;2227.20
26272;DHT22;13997;48.902;12.472;2023-12-20T09:27:35;103.30;2227.20
26272;DHT22;13997;48.902;12.472;2023-12-20T09:30:01;103.30;2227.20
26272;DHT22;13997;48.902;12.472;2023-12-20T09:32:26;103.30;2227.20
26272;DHT22;13997;48.902;12.472;2023-12-20T09:34:52;128.00;2252.80
26272;DHT22;13997;48.902;12.472;2023-12-20T09:37:17;128.00;2252.80
26272;DHT22;13997;48.902;12.472;2023-12-20T09:39:43;128.00;2252.80
26272;DHT22;13997;48.902;12.472;2023-12-20T09:42:08;128.00;2252.80
26272;DHT22;13997;48.902;12.472;2023-12-20T09:44:36;128.00;2252.80
26272;DHT22;13997;48.902;12.472;2023-12-20T09:47:03;128.10;2252.80
26272;DHT22;13997;48.902;12.472;2023-12-20T09:49:29;128.10;2252.80
26272;DHT22;13997;48.902;12.472;2023-12-20T09:51:55;128.10;2252.80
26272;DHT22;13997;48.902;12.472;2023-12-20T09:54:22;128.10;2252.80
26272;DHT22;13997;48.902;12.472;2023-12-20T09:56:48;128.20;2252.80
26272;DHT22;13997;48.902;12.472;2023-12-20T09:59:13;128.20;2252.80
26272;DHT22;13997;48.902;12.472;2023-12-20T10:01:39;128.20;2252.80
26272;DHT22;13997;48.902;12.472;2023-12-20T10:04:06;128.20;2252.80
26272;DHT22;13997;48.902;12.472;2023-12-20T10:06:36;128.20;2252.80
26272;DHT22;13997;48.902;12.472;2023-12-20T10:09:02;128.20;2252.80
26272;DHT22;13997;48.902;12.472;2023-12-20T10:11:27;128.20;2252.80
26272;DHT22;13997;48.902;12.472;2023-12-20T10:13:58;128.20;2252.80
26272;DHT22;13997;48.902;12.472;2023-12-20T10:16:24;128.30;2252.80
26272;DHT22;13997;48.902;12.472;2023-12-20T10:18:50;128.30;2252.80
26272;DHT22;13997;48.902;12.472;2023-12-20T10:21:15;128.30;2252.80
26272;DHT22;13997;48.902;12.472;2023-12-20T10:23:41;128.40;2252.80
26272;DHT22;13997;48.902;12.472;2023-12-20T10:26:06;128.50;2252.80
26272;DHT22;13997;48.902;12.472;2023-12-20T10:28:35;128.60;2252.80
26272;DHT22;13997;48.902;12.472;2023-12-20T10:31:00;128.60;2252.80
26272;DHT22;13997;48.902;12.472;2023-12-20T10:33:30;128.70;2252.80
26272;DHT22;13997;48.902;12.472;2023-12-20T10:35:57;128.70;2252.80
26272;DHT22;13997;48.902;12.472;2023-12-20T10:38:22;128.70;2252.80
26272;DHT22;13997;48.902;12.472;2023-12-20T10:40:48;128.70;2252.80
26272;DHT22;13997;48.902;12.472;2023-12-20T10:43:14;128.70;2252.80
26272;DHT22;13997;48.902;12.472;2023-12-20T10:45:41;128.70;2252.80
26272;DHT22;13997;48.902;12.472;2023-12-20T10:48:07;128.70;2252.80
26272;DHT22;13997;48.902;12.472;2023-12-20T10:50:32;128.70;2252.80
26272;DHT22;13997;48.902;12.472;2023-12-20T10:53:01;128.70;2252.80
26272;DHT22;13997;48.902;12.472;2023-12-20T10:55:27;128.70;2252.80
26272;DHT22;13997;48.902;12.472;2023-12-20T10:58:00;128.70;2252.80
26272;DHT22;13997;48.902;12.472;2023-12-20T11:00:25;128.70;2252.80
26272;DHT22;13997;48.902;12.472;2023-12-20T11:02:51;128.80;2252.80
26272;DHT22;13997;48.902;12.472;2023-12-20T11:05:26;128.80;2252.80
26272;DHT22;13997;48.902;12.472;2023-12-20T11:07:55;128.90;2252.80
26272;DHT22;13997;48.902;12.472;2023-12-20T11:10:27;128.90;2252.80
26272;DHT22;13997;48.902;12.472;2023-12-20T11:12:58;128.90;2252.80
26272;DHT22;13997;48.902;12.472;2023-12-20T11:15:26;128.90;2252.80
26272;DHT22;13997;48.902;12.472;2023-12-20T11:17:55;128.90;2252.80
26272;DHT22;13997;48.902;12.472;2023-12-20T11:20:24;128.90;2252.80
26272;DHT22;13997;48.902;12.472;2023-12-20T11:23:00;153.60;2252.80
26272;DHT22;13997;48.902;12.472;2023-12-20T11:25:25;128.90;2252.80
26272;DHT22;13997;48.902;12.472;2023-12-20T11:28:06;153.60;2252.80
26272;DHT22;13997;48.902;12.472;2023-12-20T11:33:36;153.60;2252.80
26272;DHT22;13997;48.902;12.472;2023-12-20T11:36:02;153.60;2252.80
26272;DHT22;13997;48.902;12.472;2023-12-20T11:38:35;153.60;2252.80
26272;DHT22;13997;48.902;12.472;2023-12-20T11:41:02;153.70;2252.80
26272;DHT22;13997;48.902;12.472;2023-12-20T11:43:31;153.70;2252.80
26272;DHT22;13997;48.902;12.472;2023-12-20T11:46:02;153.70;2252.80
26272;DHT22;13997;48.902;12.472;2023-12-20T11:48:28;153.80;2252.80
26272;DHT22;13997;48.902;12.472;2023-12-20T11:50:53;153.80;2252.80
26272;DHT22;13997;48.902;12.472;2023-12-20T11:53:19;154.00;2252.80
26272;DHT22;13997;48.902;12.472;2023-12-20T11:55:47;154.10;2252.80
26272;DHT22;13997;48.902;12.472;2023-12-20T11:58:12;154.10;2252.80
26272;DHT22;13997;48.902;12.472;2023-12-20T12:00:38;154.10;2252.80
26272;DHT22;13997;48.902;12.472;2023-12-20T12:03:03;154.10;2252.80
26272;DHT22;13997;48.902;12.472;2023-12-20T12:05:30;154.00;2252.80
26272;DHT22;13997;48.902;12.472;2023-12-20T12:07:56;154.00;2252.80
26272;DHT22;13997;48.902;12.472;2023-12-20T12:10:21;154.00;2252.80
26272;DHT22;13997;48.902;12.472;2023-12-20T12:12:47;153.90;2252.80
26272;DHT22;13997;48.902;12.472;2023-12-20T12:15:12;153.90;2252.80
26272;DHT22;13997;48.902;12.472;2023-12-20T12:17:38;153.80;2252.80
26272;DHT22;13997;48.902;12.472;2023-12-20T12:20:06;153.80;2252.80
26272;DHT22;13997;48.902;12.472;2023-12-20T12:22:33;153.90;2252.80
26272;DHT22;13997;48.902;12.472;2023-12-20T12:24:59;153.90;2252.80
26272;DHT22;13997;48.902;12.472;2023-12-20T12:27:24;153.90;2252.80
26272;DHT22;13997;48.902;12.472;2023-12-20T12:30:00;154.00;2252.80
26272;DHT22;13997;48.902;12.472;2023-12-20T12:32:26;154.00;2252.80
26272;DHT22;13997;48.902;12.472;2023-12-20T12:34:52;154.10;2252.80
26272;DHT22;13997;48.902;12.472;2023-12-20T12:37:17;154.20;2252.80
26272;DHT22;13997;48.902;12.472;2023-12-20T12:39:43;154.20;2252.80
26272;DHT22;13997;48.902;12.472;2023-12-20T12:42:08;154.30;2252.80
26272;DHT22;13997;48.902;12.472;2023-12-20T12:44:34;154.30;2252.80
26272;DHT22;13997;48.902;12.472;2023-12-20T12:46:59;154.20;2252.80
26272;DHT22;13997;48.902;12.472;2023-12-20T12:49:25;154.20;2252.80
26272;DHT22;13997;48.902;12.472;2023-12-20T12:51:53;154.10;2252.80
26272;DHT22;13997;48.902;12.472;2023-12-20T12:54:21;154.00;2252.80
26272;DHT22;13997;48.902;12.472;2023-12-20T12:56:46;154.00;2252.80
26272;DHT22;13997;48.902;12.472;2023-12-20T12:59:13;154.00;2252.80
26272;DHT22;13997;48.902;12.472;2023-12-20T13:01:38;153.90;2252.80
26272;DHT22;13997;48.902;12.472;2023-12-20T13:04:04;153.90;2252.80
26272;DHT22;13997;48.902;12.472;2023-12-20T13:06:32;153.90;2252.80
26272;DHT22;13997;48.902;12.472;2023-12-20T13:08:57;153.80;2252.80
26272;DHT22;13997;48.902;12.472;2023-12-20T13:11:23;153.80;2252.80
26272;DHT22;13997;48.902;12.472;2023-12-20T13:13:48;153.80;2252.80
26272;DHT22;13997;48.902;12.472;2023-12-20T13:16:14;153.80;2252.80
26272;DHT22;13997;48.902;12.472;2023-12-20T13:18:39;153.80;2252.80
26272;DHT22;13997;48.902;12.472;2023-12-20T13:21:07;153.80;2252.80
26272;DHT22;13997;48.902;12.472;2023-12-20T13:23:33;153.80;2252.80
26272;DHT22;13997;48.902;12.472;2023-12-20T13:25:58;153.80;2252.80
26272;DHT22;13997;48.902;12.472;2023-12-20T13:28:24;153.80;2252.80
26272;DHT22;13997;48.902;12.472;2023-12-20T13:30:49;153.80;2252.80
26272;DHT22;13997;48.902;12.472;2023-12-20T13:33:15;153.80;2252.80
26272;DHT22;13997;48.902;12.472;2023-12-20T13:35:40;153.80;2252.80
26272;DHT22;13997;48.902;12.472;2023-12-20T13:38:06;153.80;2252.80
26272;DHT22;13997;48.902;12.472;2023-12-20T13:40:33;153.80;2252.80
26272;DHT22;13997;48.902;12.472;2023-12-20T13:42:58;153.80;2252.80
26272;DHT22;13997;48.902;12.472;2023-12-20T13:45:24;153.80;2252.80
26272;DHT22;13997;48.902;12.472;2023-12-20T13:47:50;153.70;2252.80
26272;DHT22;13997;48.902;12.472;2023-12-20T13:50:16;153.70;2252.80
26272;DHT22;13997;48.902;12.472;2023-12-20T13:52:41;153.70;2252.80
26272;DHT22;13997;48.902;12.472;2023-12-20T13:55:07;153.70;2252.80
26272;DHT22;13997;48.902;12.472;2023-12-20T13:57:33;153.60;2252.80
26272;DHT22;13997;48.902;12.472;2023-12-20T13:59:59;153.60;2252.80
26272;DHT22;13997;48.902;12.472;2023-12-20T14:02:25;153.60;2252.80
26272;DHT22;13997;48.902;12.472;2023-12-20T14:04:52;153.60;2252.80
26272;DHT22;13997;48.902;12.472;2023-12-20T14:07:21;153.60;2252.80
26272;DHT22;13997;48.902;12.472;2023-12-20T14:09:46;153.60;2252.80
26272;DHT22;13997;48.902;12.472;2023-12-20T14:12:12;153.60;2252.80
26272;DHT22;13997;48.902;12.472;2023-12-20T14:14:38;153.70;2252.80
26272;DHT22;13997;48.902;12.472;2023-12-20T14:17:03;153.70;2252.80
26272;DHT22;13997;48.902;12.472;2023-12-20T14:19:29;153.70;2252.80
26272;DHT22;13997;48.902;12.472;2023-12-20T14:21:55;153.70;2252.80
26272;DHT22;13997;48.902;12.472;2023-12-20T14:24:20;153.70;2252.80
26272;DHT22;13997;48.902;12.472;2023-12-20T14:26:46;153.60;2252.80
26272;DHT22;13997;48.902;12.472;2023-12-20T14:29:11;153.60;2252.80
26272;DHT22;13997;48.902;12.472;2023-12-20T14:31:37;153.60;2252.80
26272;DHT22;13997;48.902;12.472;2023-12-20T14:34:04;153.60;2252.80
26272;DHT22;13997;48.902;12.472;2023-12-20T14:36:30;128.90;2252.80